CMA CGM Butterfly — A8NO8 — position and weather

sailwx.info

Track history (hours):
 
Tides and Currents Weather Stations Pressure Air Temp Water Temp Dewpoint Dewpoint Depression Visibility Wind Speed Wind Dir Waves Ship Positions

CMA CGM Butterfly

Last reported at 2015-Aug-30 05:33 UTC. Time now 2015-Sep-04 21:10 UTC.
Position N 24°31' E 119°12'.

Length 350 m; draft 8.6 m.

Type: Ship (hazmat cat A). MMSI: 636091420.

Date/timePositionNaut miles runAvg speedWind from/ knotsBaromVisibWave heightAir tempDewpointWater temp
2015-Aug-30 05:33N 24°31' E 119°12'1514.6
2015-Aug-30 04:33N 24°24' E 118°58'2612.5
2015-Aug-30 02:31N 24°13' E 118°33'1212.0
2015-Aug-30 01:29N 24°11' E 118°19'1111.9
2015-Aug-30 00:32N 24°19' E 118°11'1110.9
2015-Aug-29 23:33N 24°26' E 118°02'1 1.0
2015-Aug-29 22:31N 24°27' E 118°01'0 0.0
2015-Aug-29 20:25N 24°27' E 118°01'0 0.0
2015-Aug-29 17:25N 24°27' E 118°01'0 0.0
2015-Aug-29 16:19N 24°27' E 118°01'0 0.0
2015-Aug-29 15:19N 24°27' E 118°01'0 0.0
2015-Aug-29 13:19N 24°27' E 118°01'0 0.0
2015-Aug-29 12:19N 24°27' E 118°01'0 0.0
2015-Aug-29 10:13N 24°27' E 118°01'0 0.0
2015-Aug-29 09:13N 24°27' E 118°01'1 0.4
2015-Aug-29 07:32N 24°26' E 118°02'1110.6
2015-Aug-29 06:33N 24°20' E 118°11'9 9.2
2015-Aug-29 05:33N 24°14' E 118°18'1 0.1
2015-Aug-28 23:12N 24°14' E 118°18'0 0.1
2015-Aug-28 22:23N 24°14' E 118°18'0 0.1
2015-Aug-28 19:17N 24°14' E 118°18'0 0.2
2015-Aug-28 18:18N 24°14' E 118°18'0 0.0
2015-Aug-28 17:30N 24°14' E 118°18'0 0.0
2015-Aug-28 07:17N 24°14' E 118°18'0 0.0
2015-Aug-28 06:11N 24°14' E 118°18'0 0.0
2015-Aug-28 05:29N 24°14' E 118°18'0 0.1
2015-Aug-28 03:29N 24°14' E 118°18'0 0.1
2015-Aug-28 00:29N 24°14' E 118°18'0 0.0
2015-Aug-27 19:18N 24°14' E 118°18'0 0.0
2015-Aug-27 18:24N 24°14' E 118°18'0 0.1
2015-Aug-27 17:30N 24°14' E 118°18'0 0.1
2015-Aug-27 14:30N 24°14' E 118°18'0 0.1
2015-Aug-27 12:30N 24°14' E 118°18'1010.1
2015-Aug-27 11:29N 24°04' E 118°21'1513.3
2015-Aug-27 10:21N 23°50' E 118°13'1213.0
2015-Aug-27 09:26N 23°42' E 118°04'  
2015-Aug-22 08:33N 01°14' E 103°56'1312.7
2015-Aug-22 07:33N 01°07' E 103°45'1210.5
2015-Aug-22 06:27N 01°06' E 103°34'13712.4
2015-Aug-21 19:27N 02°22' E 101°40'1112.5
2015-Aug-21 18:33N 02°28' E 101°32'1312.6
2015-Aug-21 17:33N 02°37' E 101°22'1212.2
2015-Aug-21 16:34N 02°44' E 101°12'1212.3
2015-Aug-21 15:33N 02°55' E 101°17'1 0.1
2015-Aug-21 09:23N 02°55' E 101°17'0 0.0
2015-Aug-21 06:29N 02°55' E 101°17'0 0.0
2015-Aug-21 02:32N 02°55' E 101°17'0 0.0
2015-Aug-21 00:34N 02°55' E 101°17'8 6.7
2015-Aug-20 23:19N 02°48' E 101°14'2 1.0
2015-Aug-20 21:31N 02°47' E 101°13'0 0.1
2015-Aug-20 19:31N 02°47' E 101°13'0 0.1
2015-Aug-20 17:31N 02°47' E 101°13'0 0.0
2015-Aug-20 15:28N 02°47' E 101°13'0 0.0
2015-Aug-20 13:28N 02°47' E 101°13'0 0.1
2015-Aug-20 10:22N 02°47' E 101°13'0 0.1
2015-Aug-20 08:31N 02°47' E 101°13'0 0.0
2015-Aug-20 06:31N 02°47' E 101°13'  
Track history (hours):
 
Tides and Currents Weather Stations Pressure Air Temp Water Temp Dewpoint Dewpoint Depression Visibility Wind Speed Wind Dir Waves Ship Positions

CMA CGM Butterfly

Last reported at 2015-Aug-30 05:33 UTC. Time now 2015-Sep-04 21:10 UTC.
Position N 24°31' E 119°12'.

Length 350 m; draft 8.6 m.

Type: Ship (hazmat cat A). MMSI: 636091420.

Date/timePositionNaut miles runAvg speedWind from/ knotsBaromVisibWave heightAir tempDewpointWater temp
2015-Aug-30 05:33N 24°31' E 119°12'1514.6
2015-Aug-30 04:33N 24°24' E 118°58'2612.5
2015-Aug-30 02:31N 24°13' E 118°33'1212.0
2015-Aug-30 01:29N 24°11' E 118°19'1111.9
2015-Aug-30 00:32N 24°19' E 118°11'1110.9
2015-Aug-29 23:33N 24°26' E 118°02'1 1.0
2015-Aug-29 22:31N 24°27' E 118°01'0 0.0
2015-Aug-29 20:25N 24°27' E 118°01'0 0.0
2015-Aug-29 17:25N 24°27' E 118°01'0 0.0
2015-Aug-29 16:19N 24°27' E 118°01'0 0.0
2015-Aug-29 15:19N 24°27' E 118°01'0 0.0
2015-Aug-29 13:19N 24°27' E 118°01'0 0.0
2015-Aug-29 12:19N 24°27' E 118°01'0 0.0
2015-Aug-29 10:13N 24°27' E 118°01'0 0.0
2015-Aug-29 09:13N 24°27' E 118°01'1 0.4
2015-Aug-29 07:32N 24°26' E 118°02'1110.6
2015-Aug-29 06:33N 24°20' E 118°11'9 9.2
2015-Aug-29 05:33N 24°14' E 118°18'1 0.1
2015-Aug-28 23:12N 24°14' E 118°18'0 0.1
2015-Aug-28 22:23N 24°14' E 118°18'0 0.1
2015-Aug-28 19:17N 24°14' E 118°18'0 0.2
2015-Aug-28 18:18N 24°14' E 118°18'0 0.0
2015-Aug-28 17:30N 24°14' E 118°18'0 0.0
2015-Aug-28 07:17N 24°14' E 118°18'0 0.0
2015-Aug-28 06:11N 24°14' E 118°18'0 0.0
2015-Aug-28 05:29N 24°14' E 118°18'0 0.1
2015-Aug-28 03:29N 24°14' E 118°18'0 0.1
2015-Aug-28 00:29N 24°14' E 118°18'0 0.0
2015-Aug-27 19:18N 24°14' E 118°18'0 0.0
2015-Aug-27 18:24N 24°14' E 118°18'0 0.1
2015-Aug-27 17:30N 24°14' E 118°18'0 0.1
2015-Aug-27 14:30N 24°14' E 118°18'0 0.1
2015-Aug-27 12:30N 24°14' E 118°18'1010.1
2015-Aug-27 11:29N 24°04' E 118°21'1513.3
2015-Aug-27 10:21N 23°50' E 118°13'1213.0
2015-Aug-27 09:26N 23°42' E 118°04'  
2015-Aug-22 08:33N 01°14' E 103°56'1312.7
2015-Aug-22 07:33N 01°07' E 103°45'1210.5
2015-Aug-22 06:27N 01°06' E 103°34'13712.4
2015-Aug-21 19:27N 02°22' E 101°40'1112.5
2015-Aug-21 18:33N 02°28' E 101°32'1312.6
2015-Aug-21 17:33N 02°37' E 101°22'1212.2
2015-Aug-21 16:34N 02°44' E 101°12'1212.3
2015-Aug-21 15:33N 02°55' E 101°17'1 0.1
2015-Aug-21 09:23N 02°55' E 101°17'0 0.0
2015-Aug-21 06:29N 02°55' E 101°17'0 0.0
2015-Aug-21 02:32N 02°55' E 101°17'0 0.0
2015-Aug-21 00:34N 02°55' E 101°17'8 6.7
2015-Aug-20 23:19N 02°48' E 101°14'2 1.0
2015-Aug-20 21:31N 02°47' E 101°13'0 0.1
2015-Aug-20 19:31N 02°47' E 101°13'0 0.1
2015-Aug-20 17:31N 02°47' E 101°13'0 0.0
2015-Aug-20 15:28N 02°47' E 101°13'0 0.0
2015-Aug-20 13:28N 02°47' E 101°13'0 0.1
2015-Aug-20 10:22N 02°47' E 101°13'0 0.1
2015-Aug-20 08:31N 02°47' E 101°13'0 0.0
2015-Aug-20 06:31N 02°47' E 101°13'  

Dump ship's entire track history